This is the latest recevied weather packets stored in our database for station/object E25WRM. If no packets are shown the sender has not sent any weather packets the latest 10 day(s).
| Time | Temp. | Humidity | Pressure | Rain* | Wind** | Luminosity | Snow |
|---|---|---|---|---|---|---|---|
| 1777387800 | 37.22° C | 37% | 1001 hPa | - | - | 0 W/m² | - |
| 1777386890 | 37.22° C | 37% | 1001 hPa | - | - | 0 W/m² | - |
| 1777385980 | 37.22° C | 37% | 1001 hPa | - | - | 0 W/m² | - |
| 1777385070 | 37.78° C | 37% | 1000 hPa | - | - | 0 W/m² | - |
| 1777384160 | 37.78° C | 37% | 1000 hPa | - | - | 0 W/m² | - |
| 1777383250 | 37.22° C | 37% | 1000 hPa | - | - | 0 W/m² | - |
| 1777382340 | 37.22° C | 38% | 1000 hPa | - | - | 0 W/m² | - |
| 1777381430 | 37.78° C | 37% | 999 hPa | - | - | 0 W/m² | - |
| 1777380520 | 37.78° C | 38% | 999 hPa | - | - | 0 W/m² | - |
| 1777379610 | 37.22° C | 38% | 998 hPa | - | - | 0 W/m² | - |
| 1777378700 | 37.78° C | 37% | 998 hPa | - | - | 0 W/m² | - |
| 1777377790 | 37.78° C | 37% | 998 hPa | - | - | 0 W/m² | - |
| 1777376880 | 37.78° C | 37% | 997 hPa | - | - | 0 W/m² | - |
| 1777375970 | 37.78° C | 37% | 997 hPa | - | - | 0 W/m² | - |
| 1777375060 | 37.78° C | 37% | 997 hPa | - | - | 0 W/m² | - |
| 1777374150 | 37.78° C | 36% | 997 hPa | - | - | 0 W/m² | - |
| 1777373240 | 37.78° C | 36% | 997 hPa | - | - | 0 W/m² | - |
| 1777372330 | 38.33° C | 35% | 997 hPa | - | - | 0 W/m² | - |
| 1777371420 | 38.89° C | 33% | 997 hPa | - | - | 0 W/m² | - |
| 1777370510 | 40° C | 29% | 997 hPa | - | - | 0 W/m² | - |
| 1777369600 | 40° C | 30% | 997 hPa | - | - | 0 W/m² | - |
| 1777368690 | 38.89° C | 33% | 997 hPa | - | - | 0 W/m² | - |
| 1777367780 | 38.33° C | 34% | 998 hPa | - | - | 0 W/m² | - |
| 1777366870 | 38.33° C | 33% | 998 hPa | - | - | 0 W/m² | - |
| 1777365960 | 40° C | 31% | 998 hPa | - | - | 0 W/m² | - |
* Rain since midnight (hover to see other rain measurements)
** Current wind speed in m/s (hover to see current wind gust speed)